createdAt,value
2019-05-19T00:01:31.410Z,6.97
2019-05-19T00:05:35.978Z,6.28
2019-05-19T00:09:40.519Z,6.87
2019-05-19T00:13:45.152Z,4.78
2019-05-19T00:17:49.706Z,4.58
2019-05-19T00:21:54.271Z,5.60
2019-05-19T00:25:58.814Z,3.95
2019-05-19T00:30:04.698Z,5.55
2019-05-19T00:34:09.902Z,4.37
2019-05-19T00:38:14.501Z,3.67
2019-05-19T00:42:19.044Z,4.78
2019-05-19T00:46:24.636Z,3.98
2019-05-19T00:50:29.454Z,4.60
2019-05-19T00:54:34.061Z,4.33
2019-05-19T00:58:39.638Z,5.05
2019-05-19T01:02:44.471Z,3.35
2019-05-19T01:06:48.995Z,5.33
2019-05-19T01:10:53.535Z,3.25
2019-05-19T01:14:58.078Z,3.52
2019-05-19T01:19:02.736Z,3.87
2019-05-19T01:23:07.355Z,3.50
2019-05-19T01:27:11.874Z,3.00
2019-05-19T01:31:17.314Z,2.72
2019-05-19T01:35:21.869Z,3.07
2019-05-19T01:39:26.704Z,2.87
2019-05-19T01:43:31.253Z,3.42
2019-05-19T01:47:35.793Z,3.00
2019-05-19T01:51:40.332Z,2.60
2019-05-19T01:55:44.898Z,2.90
2019-05-19T01:59:49.438Z,2.60
2019-05-19T02:03:53.980Z,2.52
2019-05-19T02:07:58.528Z,2.67
2019-05-19T02:12:03.215Z,2.90
2019-05-19T02:16:07.809Z,2.30
2019-05-19T02:20:12.498Z,2.60
2019-05-19T02:24:17.122Z,2.87
2019-05-19T02:28:21.929Z,2.40
2019-05-19T02:32:26.560Z,2.47
2019-05-19T02:36:31.090Z,1.98
2019-05-19T02:40:38.813Z,2.60
2019-05-19T02:44:44.186Z,2.25
2019-05-19T02:48:49.770Z,2.53
2019-05-19T02:52:55.830Z,2.70
2019-05-19T02:57:01.386Z,2.70
2019-05-19T03:01:05.946Z,2.40
2019-05-19T03:05:10.670Z,2.58
2019-05-19T03:09:15.209Z,2.40
2019-05-19T03:13:20.007Z,2.45
2019-05-19T03:17:24.567Z,2.37
2019-05-19T03:21:29.118Z,2.52
2019-05-19T03:25:33.678Z,2.22
2019-05-19T03:29:39.852Z,2.65
2019-05-19T03:37:49.812Z,2.30
2019-05-19T03:41:54.394Z,4.03
2019-05-19T03:45:58.949Z,2.37
2019-05-19T03:50:03.754Z,2.00
2019-05-19T03:54:08.639Z,2.75
2019-05-19T03:58:13.173Z,2.22
2019-05-19T04:02:17.746Z,2.00
2019-05-19T04:06:22.286Z,1.87
2019-05-19T04:10:26.831Z,2.22
2019-05-19T04:14:31.390Z,2.25
2019-05-19T04:18:35.940Z,2.30
2019-05-19T04:22:40.481Z,2.12
2019-05-19T04:26:45.114Z,2.10
2019-05-19T04:30:49.667Z,2.30
2019-05-19T04:34:54.239Z,1.98
2019-05-19T04:38:58.802Z,1.90
2019-05-19T04:43:03.380Z,1.98
2019-05-19T04:47:07.931Z,1.92
2019-05-19T04:51:12.468Z,1.82
2019-05-19T04:55:17.022Z,1.98
2019-05-19T04:59:21.585Z,1.80
2019-05-19T05:03:26.135Z,2.00
2019-05-19T05:07:30.691Z,1.80
2019-05-19T05:11:35.246Z,1.87
2019-05-19T05:15:39.810Z,2.10
2019-05-19T05:19:44.357Z,1.82
2019-05-19T05:23:48.989Z,2.12
2019-05-19T05:27:53.522Z,1.85
2019-05-19T05:31:58.919Z,1.67
2019-05-19T05:36:03.747Z,1.80
2019-05-19T05:40:08.885Z,1.80
2019-05-19T05:44:13.409Z,1.60
2019-05-19T05:48:17.946Z,1.70
2019-05-19T05:52:36.058Z,1.90
2019-05-19T05:56:28.757Z,1.60
2019-05-19T06:00:33.368Z,1.67
2019-05-19T06:04:37.950Z,1.90
2019-05-19T06:08:42.494Z,1.50
2019-05-19T06:12:47.039Z,1.45
2019-05-19T06:16:51.597Z,1.50
2019-05-19T06:20:56.138Z,1.80
2019-05-19T06:25:00.693Z,1.60
2019-05-19T06:29:05.239Z,1.50
2019-05-19T06:33:09.945Z,1.50
2019-05-19T06:37:14.498Z,1.40
2019-05-19T06:41:19.042Z,1.82
2019-05-19T06:45:23.708Z,1.70
2019-05-19T06:49:28.361Z,1.62
2019-05-19T06:53:33.684Z,1.70
2019-05-19T06:57:38.241Z,1.47
2019-05-19T07:01:42.784Z,1.90
2019-05-19T07:05:47.333Z,1.60
2019-05-19T07:09:58.627Z,1.60
2019-05-19T07:13:58.176Z,1.55
2019-05-19T07:18:02.788Z,1.62
2019-05-19T07:22:07.339Z,1.72
2019-05-19T07:26:11.894Z,1.60
2019-05-19T07:30:16.507Z,1.40
2019-05-19T07:34:21.050Z,1.45
2019-05-19T07:38:25.618Z,1.42
2019-05-19T07:42:30.169Z,1.52
2019-05-19T07:46:34.736Z,1.67
2019-05-19T07:50:39.274Z,1.47
2019-05-19T07:54:43.824Z,1.30
2019-05-19T07:58:48.583Z,1.50
2019-05-19T08:02:53.130Z,1.47
2019-05-19T08:06:57.701Z,1.70
2019-05-19T08:11:02.254Z,1.50
2019-05-19T08:15:08.172Z,1.60
2019-05-19T08:19:13.051Z,1.47
2019-05-19T08:23:17.650Z,1.60
2019-05-19T08:27:22.217Z,1.50
2019-05-19T08:31:27.244Z,1.42
2019-05-19T08:35:31.958Z,1.50
2019-05-19T08:39:36.548Z,1.52
2019-05-19T08:43:41.482Z,1.57
2019-05-19T08:47:46.058Z,1.60
2019-05-19T08:51:50.770Z,1.60
2019-05-19T08:55:55.303Z,1.50
2019-05-19T09:00:05.435Z,1.75
2019-05-19T09:04:09.997Z,1.25
2019-05-19T09:08:14.550Z,1.62
2019-05-19T09:12:19.336Z,1.50
2019-05-19T09:16:23.962Z,1.30
2019-05-19T09:20:28.511Z,1.25
2019-05-19T09:24:33.060Z,1.27
2019-05-19T09:28:37.607Z,1.80
2019-05-19T09:32:42.145Z,3.17
2019-05-19T09:36:46.682Z,6.15
2019-05-19T09:40:51.226Z,4.80
2019-05-19T09:44:55.774Z,8.20
2019-05-19T09:49:18.599Z,8.05
2019-05-19T09:53:23.145Z,6.00
2019-05-19T09:57:27.698Z,7.80
2019-05-19T10:01:32.397Z,3.47
2019-05-19T10:05:36.951Z,5.67
2019-05-19T10:09:53.802Z,5.75
2019-05-19T10:13:58.346Z,5.33
2019-05-19T10:18:02.903Z,4.62
2019-05-19T10:22:07.516Z,6.95
2019-05-19T10:26:12.061Z,4.60
2019-05-19T10:30:16.870Z,5.55
2019-05-19T10:34:21.433Z,5.47
2019-05-19T10:38:25.976Z,6.53
2019-05-19T10:42:30.652Z,3.50
2019-05-19T10:46:35.201Z,4.33
2019-05-19T10:50:39.769Z,4.12
2019-05-19T10:54:44.331Z,4.55
2019-05-19T10:58:48.864Z,6.22
2019-05-19T11:02:53.428Z,3.65
2019-05-19T11:06:57.959Z,4.00
2019-05-19T11:11:02.522Z,4.55
2019-05-19T11:15:07.493Z,4.80
2019-05-19T11:19:12.058Z,5.03
2019-05-19T11:23:16.591Z,4.35
2019-05-19T11:27:21.339Z,4.12
2019-05-19T11:31:25.937Z,4.65
2019-05-19T11:35:30.503Z,4.22
2019-05-19T11:39:35.041Z,4.20
2019-05-19T11:43:39.825Z,4.30
2019-05-19T11:47:44.382Z,4.08
2019-05-19T11:51:49.054Z,4.72
2019-05-19T11:56:06.097Z,4.12
2019-05-19T12:00:01.784Z,5.08
2019-05-19T12:04:09.398Z,8.50
2019-05-19T12:08:19.887Z,12.15
2019-05-19T12:12:24.429Z,6.60
2019-05-19T12:16:28.972Z,8.25
2019-05-19T12:20:33.509Z,9.80
2019-05-19T12:24:38.133Z,4.87
2019-05-19T12:28:42.874Z,9.28
2019-05-19T12:32:47.425Z,6.25
2019-05-19T12:36:51.978Z,10.80
2019-05-19T12:40:56.766Z,5.22
2019-05-19T12:45:02.318Z,4.53
2019-05-19T12:49:07.627Z,6.00
2019-05-19T12:53:12.170Z,5.25
2019-05-19T12:57:16.727Z,7.12
2019-05-19T13:01:21.626Z,5.92
2019-05-19T13:05:26.184Z,8.33
2019-05-19T13:09:30.726Z,12.60
2019-05-19T13:13:35.294Z,7.92
2019-05-19T13:17:39.859Z,6.87
2019-05-19T13:21:44.406Z,5.42
2019-05-19T13:25:48.963Z,6.92
2019-05-19T13:29:53.494Z,6.75
2019-05-19T13:33:58.052Z,5.25
2019-05-19T13:38:02.594Z,4.17
2019-05-19T13:42:07.410Z,5.08
2019-05-19T13:46:12.007Z,5.37
2019-05-19T13:50:16.523Z,3.75
2019-05-19T13:54:21.093Z,5.75
2019-05-19T13:58:25.685Z,4.55
2019-05-19T14:02:30.225Z,5.50
2019-05-19T14:06:34.795Z,4.83
2019-05-19T14:10:40.873Z,6.08
2019-05-19T14:18:49.122Z,5.90
2019-05-19T14:22:53.767Z,5.53
2019-05-19T14:26:58.347Z,5.05
2019-05-19T14:31:02.887Z,4.90
2019-05-19T14:35:07.596Z,4.97
2019-05-19T14:39:12.157Z,11.28
2019-05-19T14:43:21.370Z,8.15
2019-05-19T14:47:26.018Z,5.25
2019-05-19T14:51:30.831Z,6.25
2019-05-19T14:55:35.459Z,6.80
2019-05-19T14:59:40.034Z,4.85
2019-05-19T15:03:44.573Z,8.13
2019-05-19T15:07:49.121Z,4.95
2019-05-19T15:11:53.658Z,4.00
2019-05-19T15:15:58.314Z,6.72
2019-05-19T15:20:03.694Z,4.40
2019-05-19T15:24:08.639Z,4.80
2019-05-19T15:28:13.202Z,5.80
2019-05-19T15:32:17.746Z,5.95
2019-05-19T15:36:22.302Z,29.77
2019-05-19T15:40:26.866Z,24.43
2019-05-19T15:44:32.295Z,35.05
2019-05-19T15:48:37.141Z,35.33
2019-05-19T15:52:41.705Z,30.10
2019-05-19T15:56:46.273Z,28.47
2019-05-19T16:00:50.827Z,26.17
2019-05-19T16:04:55.427Z,31.82
2019-05-19T16:08:59.972Z,19.37
2019-05-19T16:13:04.540Z,22.30
2019-05-19T16:17:09.146Z,22.82
2019-05-19T16:21:13.726Z,15.68
2019-05-19T16:25:18.374Z,15.48
2019-05-19T16:29:23.194Z,15.35
2019-05-19T16:33:27.749Z,13.78
2019-05-19T16:37:32.337Z,25.72
2019-05-19T16:41:36.979Z,32.93
2019-05-19T16:45:41.633Z,40.55
2019-05-19T16:49:46.190Z,53.20
2019-05-19T16:53:52.386Z,45.17
2019-05-19T17:02:00.647Z,26.45
2019-05-19T17:06:05.218Z,20.80
2019-05-19T17:10:10.239Z,38.25
2019-05-19T17:14:14.879Z,23.98
2019-05-19T17:18:19.426Z,22.73
2019-05-19T17:22:23.967Z,17.12
2019-05-19T17:26:28.577Z,19.82
2019-05-19T17:30:33.166Z,14.58
2019-05-19T17:34:37.741Z,12.93
2019-05-19T17:38:42.286Z,13.83
2019-05-19T17:42:46.829Z,12.82
2019-05-19T17:46:51.653Z,11.50
2019-05-19T17:50:56.361Z,10.72
2019-05-19T17:55:01.192Z,15.78
2019-05-19T17:59:16.121Z,12.50
2019-05-19T18:03:12.035Z,13.32
2019-05-19T18:07:16.577Z,14.13
2019-05-19T18:11:22.902Z,15.88
2019-05-19T18:15:27.454Z,11.73
2019-05-19T18:19:34.244Z,15.93
2019-05-19T18:23:38.822Z,13.88
2019-05-19T18:27:43.372Z,18.12
2019-05-19T18:31:47.931Z,16.57
2019-05-19T18:35:52.497Z,14.55
2019-05-19T18:39:57.063Z,15.13
2019-05-19T18:44:01.657Z,11.15
2019-05-19T18:48:06.231Z,14.40
2019-05-19T18:52:10.778Z,11.45
2019-05-19T18:56:15.343Z,11.35
2019-05-19T19:00:28.631Z,7.22
2019-05-19T19:04:36.345Z,9.85
2019-05-19T19:08:41.027Z,9.88
2019-05-19T19:12:45.623Z,8.50
2019-05-19T19:16:51.785Z,10.63
2019-05-19T19:20:56.510Z,8.05
2019-05-19T19:25:01.113Z,10.65
2019-05-19T19:29:05.673Z,7.83
2019-05-19T19:33:10.278Z,7.22
2019-05-19T19:37:14.825Z,7.83
2019-05-19T19:41:19.371Z,5.35
2019-05-19T19:45:23.968Z,6.65
2019-05-19T19:49:28.614Z,5.33
2019-05-19T19:53:33.149Z,7.50
2019-05-19T19:57:37.682Z,8.78
2019-05-19T20:01:42.477Z,5.80
2019-05-19T20:05:47.129Z,6.58
2019-05-19T20:09:51.729Z,5.15
2019-05-19T20:13:56.289Z,5.60
2019-05-19T20:18:00.994Z,5.83
2019-05-19T20:22:05.529Z,4.62
2019-05-19T20:26:10.233Z,6.05
2019-05-19T20:30:14.974Z,5.10
2019-05-19T20:34:19.993Z,5.00
2019-05-19T20:38:24.621Z,4.50
2019-05-19T20:42:29.174Z,3.62
2019-05-19T20:46:33.706Z,7.85
2019-05-19T20:50:38.245Z,4.17
2019-05-19T20:54:42.773Z,3.75
2019-05-19T20:58:47.411Z,3.85
2019-05-19T21:02:52.041Z,3.95
2019-05-19T21:06:56.872Z,3.60
2019-05-19T21:11:01.685Z,4.35
2019-05-19T21:15:06.858Z,4.03
2019-05-19T21:19:11.698Z,4.50
2019-05-19T21:23:16.283Z,4.67
2019-05-19T21:27:20.838Z,3.22
2019-05-19T21:31:25.393Z,3.80
2019-05-19T21:35:29.954Z,4.55
2019-05-19T21:39:34.498Z,3.55
2019-05-19T21:43:39.021Z,3.25
2019-05-19T21:47:43.550Z,4.75
2019-05-19T21:51:48.113Z,10.93
2019-05-19T21:55:53.419Z,4.93
2019-05-19T21:59:58.155Z,6.55
2019-05-19T22:04:02.707Z,4.35
2019-05-19T22:08:08.947Z,3.40
2019-05-19T22:16:17.201Z,3.60
2019-05-19T22:20:21.790Z,3.47
2019-05-19T22:24:26.400Z,4.60
2019-05-19T22:28:31.213Z,4.03
2019-05-19T22:32:35.766Z,4.00
2019-05-19T22:36:40.357Z,3.62
2019-05-19T22:40:44.912Z,3.83
2019-05-19T22:44:49.433Z,5.03
2019-05-19T22:48:53.973Z,4.28
2019-05-19T22:52:58.518Z,4.20
2019-05-19T22:57:03.045Z,4.35
2019-05-19T23:01:07.587Z,4.75
2019-05-19T23:05:12.550Z,4.67
2019-05-19T23:09:17.093Z,4.08
2019-05-19T23:13:21.814Z,5.58
2019-05-19T23:17:26.359Z,5.90
2019-05-19T23:21:30.910Z,4.67
2019-05-19T23:25:35.458Z,4.10
2019-05-19T23:29:40.014Z,4.45
2019-05-19T23:33:44.563Z,3.80
2019-05-19T23:37:49.155Z,4.42
2019-05-19T23:41:53.710Z,4.00
2019-05-19T23:45:58.268Z,4.45
2019-05-19T23:50:03.976Z,4.08
2019-05-19T23:54:08.798Z,4.03
2019-05-19T23:58:13.339Z,3.67
